Time;durP1;ratioP1;P1;durP2;ratioP2;P2;SDS_P1;SDS_P2;PMS_P1;PMS_P2;Temp;Humidity;BMP_temperature;BMP_pressure;BME280_temperature;BME280_humidity;BME280_pressure;Samples;Min_cycle;Max_cycle;Signal;HPM_P1;HPM_P2
2023/09/14 00:01:20;;;;;;;283.73;189.93;;;26.90;99.90;;;;;;5055772;28;20095;-65
2023/09/14 00:03:46;;;;;;;275.58;181.90;;;27.00;99.90;;;;;;5055868;28;20029;-66
2023/09/14 00:06:13;;;;;;;256.67;160.75;;;27.10;99.90;;;;;;5055635;28;20032;-65
2023/09/14 00:08:40;;;;;;;249.50;164.40;;;27.10;99.90;;;;;;5041809;28;20048;-65
2023/09/14 00:11:06;;;;;;;253.38;161.75;;;27.20;99.90;;;;;;5035565;28;20100;-69
2023/09/14 00:13:33;;;;;;;219.93;148.23;;;27.20;99.90;;;;;;5035333;28;20095;-66
2023/09/14 00:16:00;;;;;;;196.40;136.27;;;27.20;99.90;;;;;;5035519;28;20056;-66
2023/09/14 00:18:27;;;;;;;206.15;132.48;;;27.30;99.90;;;;;;5035329;28;20021;-65
2023/09/14 00:20:54;;;;;;;171.00;123.32;;;27.40;99.90;;;;;;5035127;28;20032;-65
2023/09/14 00:23:21;;;;;;;173.55;115.57;;;27.40;99.90;;;;;;5035595;28;20025;-68
2023/09/14 00:25:48;;;;;;;159.77;111.53;;;27.50;99.90;;;;;;5035099;28;20537;-67
2023/09/14 00:28:15;;;;;;;146.50;102.78;;;27.50;99.90;;;;;;5035257;28;20108;-69
2023/09/14 00:30:42;;;;;;;145.35;101.00;;;27.60;99.90;;;;;;5034918;28;20032;-67
2023/09/14 00:33:08;;;;;;;138.15;97.22;;;27.70;99.90;;;;;;5053764;28;20035;-67
2023/09/14 00:35:35;;;;;;;133.70;92.68;;;27.80;99.90;;;;;;5074796;28;20036;-65
2023/09/14 00:38:01;;;;;;;137.52;93.10;;;27.90;99.90;;;;;;5075002;28;20031;-66
2023/09/14 00:40:28;;;;;;;160.15;116.65;;;27.90;99.90;;;;;;5075014;28;20028;-66
2023/09/14 00:42:55;;;;;;;133.25;93.70;;;28.00;99.90;;;;;;5074644;28;20059;-65
2023/09/14 00:45:22;;;;;;;118.13;86.57;;;28.10;99.90;;;;;;5074658;28;20025;-66
2023/09/14 00:47:52;;;;;;;116.10;80.63;;;28.10;99.90;;;;;;5073926;28;20033;-66
2023/09/14 00:50:20;;;;;;;120.88;88.50;;;28.20;99.90;;;;;;5074498;28;20121;-66
2023/09/14 00:52:57;;;;;;;106.15;78.03;;;28.30;99.90;;;;;;5074399;28;20044;-65
2023/09/14 00:55:25;;;;;;;107.78;76.18;;;28.30;99.90;;;;;;5074565;28;20478;-66
2023/09/14 00:57:52;;;;;;;103.38;74.20;;;28.30;99.90;;;;;;5075158;28;20632;-66
2023/09/14 01:00:19;;;;;;;94.57;68.75;;;28.30;99.90;;;;;;5074319;28;20094;-66
2023/09/14 01:02:46;;;;;;;104.53;68.65;;;28.40;99.90;;;;;;5074341;28;20090;-68
2023/09/14 01:05:14;;;;;;;99.50;67.63;;;28.40;99.90;;;;;;5074427;28;20032;-66
2023/09/14 01:07:41;;;;;;;83.38;60.67;;;28.40;99.90;;;;;;5074520;28;20108;-69
2023/09/14 01:10:12;;;;;;;88.95;62.22;;;28.50;99.90;;;;;;5074525;28;20039;-70
2023/09/14 01:12:39;;;;;;;87.57;59.10;;;28.40;99.90;;;;;;5074135;28;20033;-65
2023/09/14 01:15:30;;;;;;;78.88;56.50;;;28.50;99.90;;;;;;5074058;28;20109;-66
2023/09/14 01:18:12;;;;;;;78.50;53.65;;;28.50;99.90;;;;;;5074282;28;20085;-66
2023/09/14 01:21:06;;;;;;;85.78;56.03;;;28.60;99.90;;;;;;5074360;28;20530;-67
2023/09/14 01:23:37;;;;;;;77.32;56.05;;;28.60;99.90;;;;;;5073969;28;20074;-67
2023/09/14 01:26:05;;;;;;;74.50;54.72;;;28.70;99.90;;;;;;5074176;28;20035;-66
2023/09/14 01:28:31;;;;;;;72.57;53.90;;;28.80;99.90;;;;;;5074278;28;20096;-65
2023/09/14 01:30:58;;;;;;;78.35;56.28;;;28.80;99.90;;;;;;5073968;28;20413;-65
2023/09/14 01:33:27;;;;;;;83.78;58.03;;;28.90;99.90;;;;;;5073772;28;20043;-67
2023/09/14 01:36:27;;;;;;;81.07;57.03;;;28.90;99.90;;;;;;5073728;28;20390;-68
2023/09/14 01:38:55;;;;;;;83.15;54.20;;;28.90;99.90;;;;;;5073759;28;20086;-67
2023/09/14 01:41:22;;;;;;;73.43;53.80;;;29.00;99.90;;;;;;5074015;28;20025;-66
2023/09/14 01:43:53;;;;;;;81.28;54.22;;;29.10;99.90;;;;;;5073709;28;20024;-64
2023/09/14 01:46:20;;;;;;;71.47;53.38;;;29.20;99.90;;;;;;5073923;28;20077;-66
2023/09/14 01:48:49;;;;;;;77.72;51.65;;;29.40;99.90;;;;;;5073592;28;20131;-65
2023/09/14 01:51:15;;;;;;;73.28;49.50;;;29.40;99.90;;;;;;5073769;28;20028;-65
2023/09/14 01:53:42;;;;;;;77.75;51.03;;;29.40;99.90;;;;;;5073642;28;20444;-66
2023/09/14 01:56:09;;;;;;;85.32;52.95;;;29.40;99.90;;;;;;5073567;28;20033;-66
2023/09/14 01:58:35;;;;;;;86.45;57.63;;;29.50;99.90;;;;;;5073348;28;20450;-67
2023/09/14 02:01:02;;;;;;;89.55;55.55;;;29.50;99.90;;;;;;5073628;28;20104;-68
2023/09/14 02:03:29;;;;;;;84.85;56.72;;;29.50;99.90;;;;;;5073370;28;20050;-67
2023/09/14 02:05:58;;;;;;;83.82;53.67;;;29.50;99.90;;;;;;5073215;28;20024;-65
2023/09/14 02:08:29;;;;;;;84.38;57.00;;;29.50;99.90;;;;;;5073430;28;20037;-66
2023/09/14 02:10:56;;;;;;;94.63;63.03;;;29.60;99.90;;;;;;5073405;28;20029;-67
2023/09/14 02:13:22;;;;;;;97.00;64.80;;;29.80;99.90;;;;;;5073170;28;20027;-67
2023/09/14 02:15:50;;;;;;;104.07;63.28;;;29.80;99.90;;;;;;5073154;28;20031;-67
2023/09/14 02:18:17;;;;;;;113.30;73.53;;;30.00;99.90;;;;;;5073416;28;20479;-66
2023/09/14 02:20:44;;;;;;;116.30;73.95;;;30.00;99.90;;;;;;5073051;28;20024;-71
2023/09/14 02:23:11;;;;;;;126.85;76.85;;;30.00;99.90;;;;;;5073094;28;20024;-66
2023/09/14 02:25:37;;;;;;;143.80;82.40;;;30.10;99.90;;;;;;5073330;28;20025;-65
2023/09/14 02:28:04;;;;;;;141.00;84.85;;;30.20;99.90;;;;;;5073083;28;20020;-65
2023/09/14 02:30:31;;;;;;;141.00;88.85;;;30.30;99.90;;;;;;5072429;28;20398;-65
2023/09/14 02:32:57;;;;;;;155.60;91.60;;;30.40;99.90;;;;;;5072888;28;20029;-66
2023/09/14 02:35:24;;;;;;;142.38;85.80;;;30.50;99.90;;;;;;5073082;28;20502;-65
2023/09/14 02:37:50;;;;;;;148.40;89.75;;;30.50;99.90;;;;;;5073019;28;20510;-65
2023/09/14 02:40:17;;;;;;;138.07;86.10;;;30.50;99.90;;;;;;5072869;28;20095;-65
2023/09/14 02:42:43;;;;;;;145.48;91.20;;;30.60;99.90;;;;;;5071992;28;20028;-65
2023/09/14 02:45:10;;;;;;;141.02;86.47;;;30.60;99.90;;;;;;5072483;28;20096;-66
2023/09/14 02:47:36;;;;;;;141.30;87.18;;;30.60;99.90;;;;;;5072884;28;20021;-66
2023/09/14 02:50:03;;;;;;;129.00;77.07;;;30.70;99.90;;;;;;5072873;28;20522;-66
2023/09/14 02:52:30;;;;;;;113.75;71.57;;;30.80;99.90;;;;;;5072543;28;20132;-66
2023/09/14 02:54:56;;;;;;;118.75;74.65;;;30.90;99.90;;;;;;5054714;28;20501;-64
2023/09/14 02:57:23;;;;;;;106.95;66.80;;;30.90;99.90;;;;;;5041539;28;20080;-66
2023/09/14 02:59:52;;;;;;;84.45;56.70;;;30.90;99.90;;;;;;5032708;28;20075;-66
2023/09/14 03:02:19;;;;;;;96.05;57.25;;;31.00;99.90;;;;;;5032959;28;20052;-67
2023/09/14 03:04:45;;;;;;;91.07;57.00;;;31.00;99.90;;;;;;5032932;28;20381;-67
2023/09/14 03:07:12;;;;;;;78.35;52.97;;;31.00;99.90;;;;;;5032513;28;20026;-64
2023/09/14 03:09:38;;;;;;;80.15;46.35;;;31.10;99.90;;;;;;5032726;28;20038;-66
2023/09/14 03:12:05;;;;;;;73.78;47.72;;;31.20;99.90;;;;;;5034532;28;20037;-66
2023/09/14 03:14:32;;;;;;;92.03;52.75;;;31.30;99.90;;;;;;5034927;28;20101;-66
2023/09/14 03:16:59;;;;;;;87.72;51.08;;;31.40;99.90;;;;;;5035057;28;20155;-65
2023/09/14 03:19:25;;;;;;;98.13;55.90;;;31.50;99.90;;;;;;5035851;28;20033;-66
2023/09/14 03:21:52;;;;;;;111.63;63.25;;;31.50;99.90;;;;;;5036049;28;20021;-66
2023/09/14 03:24:19;;;;;;;119.07;65.88;;;31.60;99.90;;;;;;5036325;28;20032;-67
2023/09/14 03:26:46;;;;;;;117.82;71.40;;;31.70;99.90;;;;;;5036216;28;20029;-67
2023/09/14 03:29:13;;;;;;;136.23;77.55;;;31.80;99.90;;;;;;5036141;28;20033;-67
2023/09/14 03:31:39;;;;;;;145.95;81.10;;;31.80;99.90;;;;;;5036265;28;20025;-66
2023/09/14 03:34:07;;;;;;;139.57;81.97;;;31.80;99.90;;;;;;5036383;28;20108;-67
2023/09/14 03:36:33;;;;;;;140.63;82.55;;;31.80;99.90;;;;;;5035996;28;20479;-67
2023/09/14 03:39:00;;;;;;;142.77;85.18;;;31.80;99.90;;;;;;5036050;28;20057;-67
2023/09/14 03:41:27;;;;;;;163.88;93.45;;;31.80;99.90;;;;;;5035931;28;20080;-67
2023/09/14 03:43:53;;;;;;;175.35;99.32;;;31.80;99.90;;;;;;5036023;28;20051;-67
2023/09/14 03:46:20;;;;;;;187.07;103.50;;;31.90;99.90;;;;;;5035866;28;20076;-67
2023/09/14 03:48:46;;;;;;;180.98;102.78;;;31.90;99.90;;;;;;5035864;28;20087;-67
2023/09/14 03:51:13;;;;;;;181.73;100.85;;;31.90;99.90;;;;;;5035769;28;20030;-66
2023/09/14 03:53:39;;;;;;;172.85;98.13;;;31.90;99.90;;;;;;5035542;28;20053;-67
2023/09/14 03:56:06;;;;;;;159.80;95.03;;;31.80;99.90;;;;;;5035558;28;20041;-67
2023/09/14 03:58:32;;;;;;;153.02;88.13;;;31.80;99.90;;;;;;5035690;28;20079;-65
2023/09/14 04:00:59;;;;;;;154.48;90.68;;;31.80;99.90;;;;;;5035576;28;20038;-67
2023/09/14 04:03:26;;;;;;;118.65;75.15;;;31.80;99.90;;;;;;5035776;28;20464;-70
2023/09/14 04:05:53;;;;;;;116.57;70.35;;;31.80;99.90;;;;;;5035611;28;20034;-67
2023/09/14 04:08:19;;;;;;;98.97;60.80;;;31.80;99.90;;;;;;5035312;28;20103;-67
2023/09/14 04:10:47;;;;;;;94.30;56.35;;;32.00;99.90;;;;;;5035474;28;20029;-67
2023/09/14 04:13:35;;;;;;;80.75;54.97;;;32.10;99.90;;;;;;5035317;28;20040;-67
2023/09/14 04:16:03;;;;;;;71.75;47.97;;;32.20;99.90;;;;;;5055578;28;20459;-67
2023/09/14 04:18:35;;;;;;;68.22;44.35;;;32.20;99.90;;;;;;5074856;28;20017;-67
2023/09/14 04:21:03;;;;;;;59.72;44.35;;;32.30;99.90;;;;;;5074844;28;20510;-66
2023/09/14 04:23:29;;;;;;;61.03;45.10;;;32.40;99.90;;;;;;5073472;28;20495;-66
2023/09/14 04:25:56;;;;;;;53.80;41.42;;;32.50;99.90;;;;;;5074955;28;20103;-66
2023/09/14 04:28:22;;;;;;;65.18;42.83;;;32.60;99.90;;;;;;5075358;28;20033;-67
2023/09/14 04:30:54;;;;;;;64.82;42.67;;;32.70;99.90;;;;;;5074937;28;20030;-67
2023/09/14 04:33:21;;;;;;;53.17;36.70;;;32.70;99.90;;;;;;5075014;28;20021;-66
2023/09/14 04:35:47;;;;;;;53.35;39.25;;;32.70;99.90;;;;;;5050414;28;20383;-64
2023/09/14 04:38:14;;;;;;;52.90;40.10;;;32.70;99.90;;;;;;5045734;28;20167;-67
2023/09/14 04:40:43;;;;;;;62.08;44.38;;;32.70;99.90;;;;;;5047433;28;20086;-70
2023/09/14 04:43:14;;;;;;;65.93;43.15;;;32.60;99.90;;;;;;5046169;28;20021;-69
2023/09/14 04:45:40;;;;;;;53.75;40.88;;;32.40;99.90;;;;;;5034901;28;20025;-71
2023/09/14 04:48:08;;;;;;;54.25;39.33;;;32.50;99.90;;;;;;5034858;28;20123;-69
2023/09/14 04:50:34;;;;;;;56.50;38.95;;;32.50;99.90;;;;;;5034911;28;20037;-68
2023/09/14 04:53:01;;;;;;;65.25;41.17;;;32.60;99.90;;;;;;5034626;28;20530;-70
2023/09/14 04:55:27;;;;;;;62.75;43.97;;;32.60;99.90;;;;;;5034707;28;20108;-70
2023/09/14 04:57:54;;;;;;;84.57;48.40;;;32.70;99.90;;;;;;5034696;28;20022;-65
2023/09/14 05:00:20;;;;;;;66.20;42.53;;;32.70;99.90;;;;;;5050988;28;20025;-64
2023/09/14 05:02:47;;;;;;;64.95;42.28;;;32.70;99.90;;;;;;5036820;28;20096;-64
2023/09/14 05:05:14;;;;;;;68.10;46.15;;;32.80;99.90;;;;;;5061061;28;20111;-64
2023/09/14 05:07:42;;;;;;;62.88;43.10;;;32.90;99.90;;;;;;5068602;28;20025;-64
2023/09/14 05:10:10;;;;;;;57.22;38.78;;;32.80;99.90;;;;;;5073832;28;20540;-64
2023/09/14 05:12:37;;;;;;;52.15;38.22;;;32.90;99.90;;;;;;5073847;28;20033;-66
2023/09/14 05:15:03;;;;;;;53.85;37.83;;;32.90;99.90;;;;;;5073778;28;20021;-65
2023/09/14 05:17:30;;;;;;;54.20;37.80;;;32.90;99.90;;;;;;5073507;28;20020;-63
2023/09/14 05:19:56;;;;;;;52.60;36.47;;;32.90;99.90;;;;;;5073911;28;20025;-67
2023/09/14 05:22:25;;;;;;;49.70;37.47;;;32.90;99.90;;;;;;5073826;28;20055;-65
2023/09/14 05:24:52;;;;;;;58.60;39.03;;;32.90;99.90;;;;;;5073576;28;20028;-65
2023/09/14 05:27:19;;;;;;;55.33;38.50;;;32.90;99.90;;;;;;5073816;28;20039;-65
2023/09/14 05:29:45;;;;;;;51.08;37.08;;;33.00;99.90;;;;;;5074168;28;20027;-66
2023/09/14 05:32:12;;;;;;;55.35;40.90;;;33.00;99.90;;;;;;5073627;28;20024;-64
2023/09/14 05:34:38;;;;;;;52.90;42.05;;;32.90;99.90;;;;;;5072999;28;20028;-66
2023/09/14 05:37:05;;;;;;;63.47;47.40;;;32.90;99.90;;;;;;5073617;28;20016;-66
2023/09/14 05:39:31;;;;;;;58.13;45.38;;;32.90;99.90;;;;;;5073509;28;20020;-66
2023/09/14 05:41:58;;;;;;;64.43;47.33;;;32.90;99.90;;;;;;5073358;28;20017;-68
2023/09/14 05:44:25;;;;;;;63.88;45.40;;;33.00;99.50;;;;;;5073603;28;20032;-68
2023/09/14 05:46:51;;;;;;;56.50;42.97;;;33.00;99.90;;;;;;5073253;28;20020;-67
2023/09/14 05:49:18;;;;;;;56.58;41.15;;;33.00;99.90;;;;;;5071567;28;20150;-70
2023/09/14 05:51:45;;;;;;;58.20;42.33;;;33.00;99.90;;;;;;5072258;28;20040;-67
2023/09/14 05:54:11;;;;;;;59.65;44.15;;;33.00;99.90;;;;;;5072423;28;20106;-66
2023/09/14 05:56:38;;;;;;;59.08;44.20;;;32.90;99.90;;;;;;5072564;28;20031;-67
2023/09/14 05:59:04;;;;;;;54.85;43.58;;;33.10;99.90;;;;;;5073051;28;20020;-68
2023/09/14 06:01:31;;;;;;;61.13;44.55;;;33.20;99.90;;;;;;5073061;28;20067;-64
2023/09/14 06:03:57;;;;;;;63.78;45.45;;;33.20;99.80;;;;;;5073300;28;20024;-63
2023/09/14 06:06:24;;;;;;;60.72;44.65;;;33.20;99.50;;;;;;5073338;28;20031;-65
2023/09/14 06:08:50;;;;;;;69.05;47.17;;;33.20;99.60;;;;;;5073275;28;20020;-68
2023/09/14 06:11:17;;;;;;;68.88;46.95;;;33.10;99.40;;;;;;5073288;28;20425;-67
2023/09/14 06:13:43;;;;;;;76.82;45.20;;;33.10;99.20;;;;;;5073281;28;20426;-69
2023/09/14 06:16:11;;;;;;;70.88;48.65;;;33.20;99.10;;;;;;5073129;28;20099;-66
2023/09/14 06:18:37;;;;;;;65.07;47.03;;;33.30;99.20;;;;;;5073019;28;20021;-68
2023/09/14 06:21:04;;;;;;;57.03;42.05;;;33.40;98.70;;;;;;5073071;28;20063;-67
2023/09/14 06:23:30;;;;;;;64.10;42.88;;;33.50;98.00;;;;;;5073362;28;20043;-68
2023/09/14 06:25:57;;;;;;;69.75;44.35;;;33.60;98.00;;;;;;5073052;28;20036;-67
2023/09/14 06:28:23;;;;;;;75.78;44.70;;;33.60;97.90;;;;;;5073058;28;20029;-67
2023/09/14 06:30:50;;;;;;;63.42;42.45;;;33.60;97.60;;;;;;5072207;28;20429;-68
2023/09/14 06:33:16;;;;;;;52.78;38.10;;;33.80;96.70;;;;;;5072915;28;20029;-66
2023/09/14 06:35:43;;;;;;;54.20;37.72;;;33.80;97.10;;;;;;5072628;28;20028;-67
2023/09/14 06:38:09;;;;;;;52.60;37.95;;;33.90;96.40;;;;;;5072919;28;20041;-69
2023/09/14 06:40:36;;;;;;;58.55;40.15;;;33.90;96.10;;;;;;5072862;28;20028;-68
2023/09/14 06:43:02;;;;;;;53.15;39.83;;;34.00;94.90;;;;;;5072820;28;20027;-66
2023/09/14 06:45:29;;;;;;;50.97;36.80;;;34.00;95.40;;;;;;5072926;28;20028;-67
2023/09/14 06:47:55;;;;;;;49.17;35.97;;;34.00;95.50;;;;;;5076051;28;20029;-66
2023/09/14 06:50:22;;;;;;;44.92;35.10;;;34.00;95.00;;;;;;5076615;28;20460;-67
2023/09/14 06:52:48;;;;;;;52.92;36.20;;;34.00;94.60;;;;;;5076688;28;20490;-65
2023/09/14 06:55:15;;;;;;;55.88;38.13;;;34.10;94.40;;;;;;5076696;28;20476;-65
2023/09/14 06:57:42;;;;;;;51.17;37.85;;;34.10;94.00;;;;;;5076455;28;20099;-66
2023/09/14 07:00:16;;;;;;;51.70;36.75;;;34.10;94.20;;;;;;5076570;28;20103;-66
2023/09/14 07:02:44;;;;;;;42.92;32.60;;;34.10;94.00;;;;;;5076857;28;20133;-64
2023/09/14 07:05:10;;;;;;;48.22;33.47;;;34.20;93.90;;;;;;5076519;28;20028;-65
2023/09/14 07:07:38;;;;;;;49.00;32.28;;;34.30;94.50;;;;;;5076622;28;20467;-67
2023/09/14 07:10:06;;;;;;;53.83;32.58;;;34.40;94.20;;;;;;5076418;28;20036;-67
2023/09/14 07:12:32;;;;;;;45.95;31.92;;;34.50;94.10;;;;;;5076719;28;20104;-66
2023/09/14 07:14:59;;;;;;;50.03;32.22;;;34.50;93.90;;;;;;5076263;28;20028;-67
2023/09/14 07:17:26;;;;;;;48.13;32.80;;;34.60;93.90;;;;;;5076353;28;20048;-64
2023/09/14 07:19:52;;;;;;;50.15;32.90;;;34.60;94.30;;;;;;5076229;28;20025;-65
2023/09/14 07:22:19;;;;;;;46.47;34.70;;;34.70;93.40;;;;;;5075857;28;20074;-64
2023/09/14 07:24:47;;;;;;;48.75;33.63;;;34.60;92.30;;;;;;5076169;28;20082;-64
2023/09/14 07:27:15;;;;;;;52.55;37.85;;;34.50;92.80;;;;;;5062930;28;20032;-64
2023/09/14 07:29:41;;;;;;;53.80;39.65;;;34.50;93.20;;;;;;5050364;28;20057;-64
2023/09/14 07:32:09;;;;;;;55.22;38.92;;;34.50;93.10;;;;;;5055992;28;20032;-64
2023/09/14 07:34:35;;;;;;;63.17;41.13;;;34.40;93.20;;;;;;5055738;28;20029;-65
2023/09/14 07:37:02;;;;;;;56.95;41.28;;;34.40;93.30;;;;;;5056039;28;20096;-64
2023/09/14 07:39:28;;;;;;;60.75;42.53;;;34.40;92.90;;;;;;5042776;28;20020;-64
2023/09/14 07:41:55;;;;;;;64.63;44.55;;;34.50;93.00;;;;;;5072770;28;20078;-64
2023/09/14 07:44:22;;;;;;;67.97;45.88;;;34.50;92.50;;;;;;5075435;28;20024;-64
2023/09/14 07:46:49;;;;;;;70.00;42.20;;;34.40;93.00;;;;;;5075802;28;20095;-68
2023/09/14 07:49:16;;;;;;;60.35;43.13;;;34.50;93.30;;;;;;5075520;28;20275;-69
2023/09/14 07:51:42;;;;;;;64.20;46.22;;;34.40;93.10;;;;;;5054661;28;20029;-65
2023/09/14 07:54:09;;;;;;;63.08;43.78;;;34.40;92.80;;;;;;5073714;28;20115;-68
2023/09/14 07:56:36;;;;;;;62.28;43.67;;;34.40;93.30;;;;;;5075467;28;20407;-69
2023/09/14 07:59:02;;;;;;;67.05;48.00;;;34.40;93.30;;;;;;5074921;28;20028;-68
2023/09/14 08:01:29;;;;;;;79.72;55.25;;;34.40;93.20;;;;;;5075478;28;20021;-69
2023/09/14 08:03:55;;;;;;;83.60;58.33;;;34.40;93.00;;;;;;5075039;28;20054;-66
2023/09/14 08:06:23;;;;;;;63.15;45.58;;;34.30;93.20;;;;;;5075241;28;20052;-65
2023/09/14 08:08:50;;;;;;;73.05;48.45;;;34.20;92.50;;;;;;5074827;28;20044;-67
2023/09/14 08:11:16;;;;;;;64.85;45.78;;;34.20;92.20;;;;;;5074867;28;20025;-67
2023/09/14 08:13:43;;;;;;;76.68;51.60;;;34.10;92.50;;;;;;5069913;28;20043;-66
2023/09/14 08:16:09;;;;;;;78.18;52.55;;;34.10;92.60;;;;;;5074902;28;20044;-66
2023/09/14 08:18:36;;;;;;;75.30;48.30;;;34.20;92.90;;;;;;5074707;28;20111;-66
2023/09/14 08:21:02;;;;;;;60.65;41.55;;;34.20;92.70;;;;;;5069102;28;20031;-66
2023/09/14 08:23:29;;;;;;;57.50;38.83;;;34.10;92.60;;;;;;5074578;28;20573;-67
2023/09/14 08:25:56;;;;;;;61.17;42.10;;;34.20;92.20;;;;;;5074798;28;20032;-71
2023/09/14 08:28:22;;;;;;;83.38;52.00;;;34.20;92.60;;;;;;5074715;28;20440;-68
2023/09/14 08:30:49;;;;;;;58.58;38.30;;;34.20;92.10;;;;;;5074168;28;20060;-68
2023/09/14 08:33:18;;;;;;;58.58;38.55;;;34.30;92.00;;;;;;5074214;28;20031;-66
2023/09/14 08:35:45;;;;;;;54.05;36.90;;;34.30;91.40;;;;;;5074402;28;20031;-67
2023/09/14 08:38:11;;;;;;;59.03;39.00;;;34.30;91.90;;;;;;5074522;28;20490;-67
2023/09/14 08:40:41;;;;;;;62.38;41.83;;;34.20;91.50;;;;;;5074009;28;20471;-66
2023/09/14 08:43:12;;;;;;;65.10;46.28;;;34.30;92.00;;;;;;5074268;28;20103;-68
2023/09/14 08:45:39;;;;;;;75.65;51.33;;;34.20;91.90;;;;;;5069771;28;20020;-66
2023/09/14 08:48:07;;;;;;;91.03;59.17;;;34.20;92.00;;;;;;5073138;28;20032;-67
2023/09/14 08:50:34;;;;;;;80.28;52.38;;;34.20;92.00;;;;;;5073694;28;20487;-67
2023/09/14 08:53:01;;;;;;;77.32;50.83;;;34.10;91.40;;;;;;5073710;28;20044;-67
2023/09/14 08:55:35;;;;;;;100.05;69.28;;;34.00;91.20;;;;;;5073524;28;20482;-65
2023/09/14 08:58:03;;;;;;;101.00;71.32;;;33.90;91.50;;;;;;5073948;28;20020;-65
2023/09/14 09:00:31;;;;;;;78.78;57.92;;;33.90;91.50;;;;;;5073978;28;20078;-66
2023/09/14 09:02:59;;;;;;;71.18;48.80;;;33.90;92.10;;;;;;5062051;28;20032;-65
2023/09/14 09:05:27;;;;;;;53.40;37.38;;;33.90;91.70;;;;;;5062637;28;20028;-65
2023/09/14 09:07:55;;;;;;;54.58;39.80;;;33.90;91.90;;;;;;5068806;28;20029;-66
2023/09/14 09:10:29;;;;;;;56.05;40.28;;;33.80;90.90;;;;;;5073101;28;20040;-65
2023/09/14 09:13:01;;;;;;;61.08;42.53;;;33.70;91.60;;;;;;5073740;28;20130;-65
2023/09/14 09:15:28;;;;;;;57.75;40.97;;;33.70;91.70;;;;;;5073509;28;20037;-65
2023/09/14 09:18:04;;;;;;;87.13;57.65;;;33.80;91.80;;;;;;5060491;28;20426;-64
2023/09/14 09:20:32;;;;;;;62.72;45.88;;;33.80;91.90;;;;;;5068155;28;20497;-66
2023/09/14 09:23:02;;;;;;;75.07;51.15;;;33.80;92.60;;;;;;5073571;28;20517;-64
2023/09/14 09:25:32;;;;;;;84.22;58.22;;;33.80;92.40;;;;;;5073468;28;20024;-65
2023/09/14 09:28:03;;;;;;;246.88;165.95;;;33.70;92.70;;;;;;5073416;28;20048;-64
2023/09/14 09:30:31;;;;;;;91.22;57.20;;;33.70;92.60;;;;;;5067944;28;20024;-66
2023/09/14 09:32:58;;;;;;;81.63;53.22;;;33.60;92.70;;;;;;5073411;28;20028;-62
2023/09/14 09:35:27;;;;;;;74.05;51.60;;;33.60;92.60;;;;;;5073272;28;20031;-63
2023/09/14 09:37:55;;;;;;;64.05;39.88;;;33.60;92.50;;;;;;5073264;28;20051;-65
2023/09/14 09:40:24;;;;;;;61.90;42.08;;;33.50;92.50;;;;;;5073107;28;20024;-64
2023/09/14 09:42:55;;;;;;;146.95;101.75;;;33.50;92.10;;;;;;5073232;28;20009;-64
2023/09/14 09:45:23;;;;;;;448.38;257.80;;;33.50;92.40;;;;;;5072871;28;20052;-64
2023/09/14 09:47:50;;;;;;;117.78;67.80;;;33.40;92.30;;;;;;5073044;28;20025;-67
2023/09/14 09:50:21;;;;;;;444.20;277.95;;;33.40;92.60;;;;;;5072891;28;20473;-65
2023/09/14 09:52:48;;;;;;;332.70;178.38;;;33.40;92.80;;;;;;5072849;28;20089;-66
2023/09/14 09:55:33;;;;;;;477.80;241.93;;;33.30;92.90;;;;;;5072621;28;20028;-65
2023/09/14 09:58:00;;;;;;;695.63;433.13;;;33.30;92.60;;;;;;5068034;28;20023;-65
2023/09/14 10:00:34;;;;;;;572.67;321.00;;;33.30;92.90;;;;;;5072820;28;20025;-63
2023/09/14 10:03:01;;;;;;;585.22;334.83;;;33.20;93.00;;;;;;5068137;28;20467;-65
2023/09/14 10:05:32;;;;;;;287.00;109.70;;;33.20;92.80;;;;;;5073135;28;20032;-66
2023/09/14 10:08:01;;;;;;;255.77;100.50;;;33.10;92.50;;;;;;5067744;28;20017;-65
2023/09/14 10:10:32;;;;;;;141.23;62.70;;;33.10;92.80;;;;;;5072832;28;20246;-65
2023/09/14 10:12:59;;;;;;;238.23;87.18;;;33.00;92.70;;;;;;5067608;28;20017;-65
2023/09/14 10:15:27;;;;;;;167.48;60.55;;;33.00;93.00;;;;;;5072372;28;20502;-65
2023/09/14 10:17:57;;;;;;;183.85;65.45;;;32.90;92.80;;;;;;5072697;28;20106;-65
2023/09/14 10:20:25;;;;;;;195.65;69.13;;;32.90;93.10;;;;;;5072902;28;20096;-65
2023/09/14 10:22:53;;;;;;;259.05;105.97;;;32.90;93.50;;;;;;5072582;28;20048;-65
2023/09/14 10:25:21;;;;;;;290.58;141.32;;;32.90;93.50;;;;;;5066080;28;20028;-65
2023/09/14 10:27:47;;;;;;;294.55;133.98;;;32.90;93.70;;;;;;5064579;28;20028;-65
2023/09/14 10:30:18;;;;;;;159.68;75.45;;;32.90;93.70;;;;;;5072415;28;20016;-65
2023/09/14 10:32:48;;;;;;;90.63;46.78;;;32.90;93.90;;;;;;5072726;28;20028;-65
2023/09/14 10:35:15;;;;;;;154.55;86.20;;;32.80;94.30;;;;;;5072443;28;20017;-65
2023/09/14 10:37:45;;;;;;;112.57;68.15;;;32.80;94.10;;;;;;5072771;28;20012;-65
2023/09/14 10:40:14;;;;;;;97.72;57.50;;;32.70;94.30;;;;;;5072489;28;20021;-65
2023/09/14 10:42:42;;;;;;;60.10;38.03;;;32.70;94.20;;;;;;5067772;28;20023;-68
2023/09/14 10:45:13;;;;;;;54.28;33.53;;;32.60;94.10;;;;;;5072233;28;20040;-69
2023/09/14 10:47:47;;;;;;;49.90;35.33;;;32.60;94.10;;;;;;5068289;28;20020;-67
2023/09/14 10:50:16;;;;;;;47.83;33.97;;;32.50;94.60;;;;;;5071950;28;20031;-66
2023/09/14 10:52:42;;;;;;;62.50;35.97;;;32.50;94.80;;;;;;5072130;28;20037;-66
2023/09/14 10:55:10;;;;;;;56.80;36.50;;;32.40;95.10;;;;;;5067265;28;20037;-68
2023/09/14 10:57:40;;;;;;;52.63;35.28;;;32.40;95.20;;;;;;5067235;28;20027;-66
2023/09/14 11:00:08;;;;;;;63.55;40.88;;;32.40;95.20;;;;;;5072716;28;20108;-66
2023/09/14 11:02:39;;;;;;;64.40;37.65;;;32.20;95.60;;;;;;5072643;28;20028;-66
2023/09/14 11:05:25;;;;;;;57.45;37.47;;;32.20;95.40;;;;;;5072384;28;20056;-65
2023/09/14 11:08:04;;;;;;;58.15;38.40;;;32.20;95.60;;;;;;5072568;28;20024;-66
2023/09/14 11:10:34;;;;;;;61.85;40.67;;;32.20;95.90;;;;;;5072551;28;20029;-65
2023/09/14 11:13:19;;;;;;;49.05;36.80;;;32.10;95.80;;;;;;5072195;28;20036;-64
2023/09/14 11:16:04;;;;;;;55.85;36.35;;;32.10;96.10;;;;;;5072395;28;20429;-65
2023/09/14 11:18:46;;;;;;;48.92;31.55;;;32.00;96.20;;;;;;5072456;28;20032;-67
2023/09/14 11:21:34;;;;;;;51.78;28.55;;;32.00;96.20;;;;;;5043247;28;20468;-67
2023/09/14 11:24:04;;;;;;;35.65;23.80;;;31.90;96.30;;;;;;5032405;28;20026;-67
2023/09/14 11:26:31;;;;;;;46.05;26.88;;;31.80;96.20;;;;;;5032407;28;20025;-67
2023/09/14 11:28:59;;;;;;;49.58;26.23;;;31.80;96.60;;;;;;5037133;28;20044;-67
2023/09/14 11:31:30;;;;;;;33.88;23.17;;;31.70;96.60;;;;;;5050209;28;20032;-67
2023/09/14 11:33:57;;;;;;;36.65;22.95;;;31.60;97.00;;;;;;5055504;28;20029;-68
2023/09/14 11:36:28;;;;;;;33.15;20.35;;;31.60;97.10;;;;;;5056012;28;20021;-66
2023/09/14 11:38:55;;;;;;;33.47;17.83;;;31.60;97.20;;;;;;5056130;28;20025;-67
2023/09/14 11:42:00;;;;;;;30.98;16.73;;;31.60;97.70;;;;;;5055666;28;20024;-67
2023/09/14 11:44:29;;;;;;;26.15;16.23;;;31.60;98.10;;;;;;5013976;28;20037;-68
2023/09/14 11:46:59;;;;;;;27.63;16.90;;;31.60;97.90;;;;;;5049090;28;20052;-66
2023/09/14 11:49:31;;;;;;;29.70;18.80;;;31.60;98.00;;;;;;5056249;28;20033;-68
2023/09/14 11:51:59;;;;;;;36.88;19.45;;;31.50;97.90;;;;;;5055933;28;20074;-67
2023/09/14 11:54:32;;;;;;;29.50;18.63;;;31.50;98.20;;;;;;5055755;28;20017;-67
2023/09/14 11:57:07;;;;;;;34.58;20.92;;;31.40;98.10;;;;;;5055609;28;20373;-67
2023/09/14 11:59:34;;;;;;;33.72;20.65;;;31.40;98.10;;;;;;5055635;28;20485;-69
2023/09/14 12:02:03;;;;;;;28.98;19.10;;;31.40;98.60;;;;;;5055773;28;20040;-68
2023/09/14 12:04:31;;;;;;;30.65;19.38;;;31.40;98.40;;;;;;5055736;28;20025;-68
2023/09/14 12:07:02;;;;;;;37.13;20.58;;;31.30;98.40;;;;;;5055417;28;20060;-68
2023/09/14 12:09:42;;;;;;;33.17;19.00;;;31.30;98.80;;;;;;5055323;28;20114;-67
2023/09/14 12:12:13;;;;;;;32.63;19.88;;;31.30;98.80;;;;;;5055533;28;20044;-67
2023/09/14 12:14:45;;;;;;;38.33;21.30;;;31.30;98.80;;;;;;5055454;28;20029;-68
2023/09/14 12:17:25;;;;;;;40.13;21.88;;;31.20;99.00;;;;;;5055441;28;20057;-68
2023/09/14 12:19:56;;;;;;;40.90;24.35;;;31.20;99.10;;;;;;5055667;28;20032;-68
2023/09/14 12:22:25;;;;;;;57.53;34.63;;;31.20;99.30;;;;;;5055218;28;20021;-67
2023/09/14 12:24:52;;;;;;;108.07;63.17;;;31.20;99.50;;;;;;5055129;28;20025;-67
2023/09/14 12:27:20;;;;;;;136.50;81.05;;;31.10;99.40;;;;;;5055276;28;20029;-68
2023/09/14 12:29:47;;;;;;;150.18;84.72;;;31.10;99.90;;;;;;5055348;28;20059;-69